sensor_id;sensor_type;location;lat;lon;timestamp;pressure;altitude;pressure_sealevel;temperature;humidity
49627;BME280;35527;54.616;39.786;2022-08-23T00:02:58;100852.41;;;20.82;85.00
49627;BME280;35527;54.616;39.786;2022-08-23T00:06:01;100856.91;;;20.80;84.81
49627;BME280;35527;54.616;39.786;2022-08-23T00:09:06;100858.09;;;20.76;85.09
49627;BME280;35527;54.616;39.786;2022-08-23T00:12:18;100845.53;;;20.66;85.60
49627;BME280;35527;54.616;39.786;2022-08-23T00:15:22;100867.41;;;20.67;85.93
49627;BME280;35527;54.616;39.786;2022-08-23T00:18:25;100874.47;;;20.66;86.11
49627;BME280;35527;54.616;39.786;2022-08-23T00:21:29;100866.66;;;20.65;86.76
49627;BME280;35527;54.616;39.786;2022-08-23T00:24:35;100855.31;;;20.50;86.30
49627;BME280;35527;54.616;39.786;2022-08-23T00:27:43;100868.53;;;20.63;86.62
49627;BME280;35527;54.616;39.786;2022-08-23T00:30:46;100877.19;;;20.65;86.63
49627;BME280;35527;54.616;39.786;2022-08-23T00:33:48;100889.38;;;20.66;86.56
49627;BME280;35527;54.616;39.786;2022-08-23T00:36:55;100879.44;;;20.57;87.47
49627;BME280;35527;54.616;39.786;2022-08-23T00:39:59;100895.34;;;20.55;87.65
49627;BME280;35527;54.616;39.786;2022-08-23T00:43:07;100871.88;;;20.38;88.13
49627;BME280;35527;54.616;39.786;2022-08-23T00:46:48;100878.34;;;20.32;88.96
49627;BME280;35527;54.616;39.786;2022-08-23T00:53:55;100895.16;;;20.30;90.02
49627;BME280;35527;54.616;39.786;2022-08-23T00:57:05;100877.53;;;20.17;90.06
49627;BME280;35527;54.616;39.786;2022-08-23T01:00:15;100895.44;;;20.25;90.17
49627;BME280;35527;54.616;39.786;2022-08-23T01:03:21;100896.19;;;20.27;90.15
49627;BME280;35527;54.616;39.786;2022-08-23T01:06:31;100902.56;;;20.23;90.86
49627;BME280;35527;54.616;39.786;2022-08-23T01:09:40;100896.41;;;20.10;90.83
49627;BME280;35527;54.616;39.786;2022-08-23T01:12:48;100911.88;;;20.14;91.30
49627;BME280;35527;54.616;39.786;2022-08-23T01:16:00;100887.88;;;19.92;91.57
49627;BME280;35527;54.616;39.786;2022-08-23T01:19:13;100903.44;;;19.95;92.27
49627;BME280;35527;54.616;39.786;2022-08-23T01:22:49;100924.28;;;19.98;93.12
49627;BME280;35527;54.616;39.786;2022-08-23T01:26:22;100931.66;;;19.91;94.28
49627;BME280;35527;54.616;39.786;2022-08-23T01:29:28;100924.16;;;19.85;94.24
49627;BME280;35527;54.616;39.786;2022-08-23T01:32:39;100933.16;;;19.81;95.48
49627;BME280;35527;54.616;39.786;2022-08-23T01:35:50;100910.75;;;19.59;95.94
49627;BME280;35527;54.616;39.786;2022-08-23T01:39:00;100940.09;;;19.68;96.71
49627;BME280;35527;54.616;39.786;2022-08-23T01:42:05;100934.94;;;19.66;96.85
49627;BME280;35527;54.616;39.786;2022-08-23T01:45:12;100919.66;;;19.57;96.99
49627;BME280;35527;54.616;39.786;2022-08-23T01:48:19;100941.44;;;19.59;98.01
49627;BME280;35527;54.616;39.786;2022-08-23T01:51:27;100940.31;;;19.49;98.36
49627;BME280;35527;54.616;39.786;2022-08-23T01:54:29;100920.69;;;19.40;98.72
49627;BME280;35527;54.616;39.786;2022-08-23T01:57:33;100931.47;;;19.50;97.91
49627;BME280;35527;54.616;39.786;2022-08-23T02:00:41;100927.66;;;19.55;97.29
49627;BME280;35527;54.616;39.786;2022-08-23T02:03:47;100919.09;;;19.52;97.14
49627;BME280;35527;54.616;39.786;2022-08-23T02:06:50;100925.78;;;19.57;97.17
49627;BME280;35527;54.616;39.786;2022-08-23T02:09:57;100942.84;;;19.65;97.24
49627;BME280;35527;54.616;39.786;2022-08-23T02:13:02;100942.97;;;19.63;96.91
49627;BME280;35527;54.616;39.786;2022-08-23T02:16:10;100941.53;;;19.57;97.47
49627;BME280;35527;54.616;39.786;2022-08-23T02:19:16;100958.03;;;19.59;97.85
49627;BME280;35527;54.616;39.786;2022-08-23T02:22:21;100955.41;;;19.59;98.44
49627;BME280;35527;54.616;39.786;2022-08-23T02:25:24;100954.84;;;19.54;98.52
49627;BME280;35527;54.616;39.786;2022-08-23T02:28:29;100964.31;;;19.57;98.52
49627;BME280;35527;54.616;39.786;2022-08-23T02:31:33;100934.53;;;19.42;98.92
49627;BME280;35527;54.616;39.786;2022-08-23T02:34:38;100952.75;;;19.45;99.19
49627;BME280;35527;54.616;39.786;2022-08-23T02:37:41;100963.94;;;19.49;99.37
49627;BME280;35527;54.616;39.786;2022-08-23T02:40:46;100958.75;;;19.47;99.64
49627;BME280;35527;54.616;39.786;2022-08-23T02:43:51;100960.44;;;19.48;99.79
49627;BME280;35527;54.616;39.786;2022-08-23T02:46:56;100946.34;;;19.35;99.78
49627;BME280;35527;54.616;39.786;2022-08-23T02:50:05;100963.75;;;19.52;99.93
49627;BME280;35527;54.616;39.786;2022-08-23T02:53:08;100972.38;;;19.54;99.30
49627;BME280;35527;54.616;39.786;2022-08-23T02:56:13;100961.84;;;19.54;99.34
49627;BME280;35527;54.616;39.786;2022-08-23T02:59:16;100969.38;;;19.60;98.70
49627;BME280;35527;54.616;39.786;2022-08-23T03:02:21;100977.94;;;19.64;98.96
49627;BME280;35527;54.616;39.786;2022-08-23T03:05:24;100982.88;;;19.70;98.67
49627;BME280;35527;54.616;39.786;2022-08-23T03:08:28;100972.28;;;19.86;97.94
49627;BME280;35527;54.616;39.786;2022-08-23T03:11:36;100979.88;;;20.49;93.75
49627;BME280;35527;54.616;39.786;2022-08-23T03:14:43;100979.97;;;21.57;85.00
49627;BME280;35527;54.616;39.786;2022-08-23T03:17:45;100983.66;;;22.33;78.59
49627;BME280;35527;54.616;39.786;2022-08-23T03:20:53;100961.34;;;22.63;74.92
49627;BME280;35527;54.616;39.786;2022-08-23T03:23:58;100982.88;;;23.06;72.08
49627;BME280;35527;54.616;39.786;2022-08-23T03:27:03;100985.25;;;23.22;70.60
49627;BME280;35527;54.616;39.786;2022-08-23T03:30:08;100990.66;;;23.45;68.12
49627;BME280;35527;54.616;39.786;2022-08-23T03:33:14;100969.91;;;23.63;66.27
49627;BME280;35527;54.616;39.786;2022-08-23T03:36:21;100989.38;;;23.97;64.89
49627;BME280;35527;54.616;39.786;2022-08-23T03:39:28;100998.44;;;24.17;62.79
49627;BME280;35527;54.616;39.786;2022-08-23T03:42:35;100995.56;;;24.31;62.21
49627;BME280;35527;54.616;39.786;2022-08-23T03:45:40;101005.69;;;24.48;61.35
49627;BME280;35527;54.616;39.786;2022-08-23T03:48:44;100999.16;;;24.75;59.39
49627;BME280;35527;54.616;39.786;2022-08-23T03:51:47;100996.63;;;24.96;58.52
49627;BME280;35527;54.616;39.786;2022-08-23T03:54:52;101001.06;;;25.50;56.05
49627;BME280;35527;54.616;39.786;2022-08-23T03:57:55;100987.72;;;25.94;53.30
49627;BME280;35527;54.616;39.786;2022-08-23T04:00:59;101009.53;;;26.28;52.54
49627;BME280;35527;54.616;39.786;2022-08-23T04:04:02;101015.13;;;26.25;51.60
49627;BME280;35527;54.616;39.786;2022-08-23T04:07:07;101006.72;;;25.99;51.44
49627;BME280;35527;54.616;39.786;2022-08-23T04:10:12;101022.09;;;26.26;51.22
49627;BME280;35527;54.616;39.786;2022-08-23T04:13:21;101013.13;;;26.48;50.49
49627;BME280;35527;54.616;39.786;2022-08-23T04:16:24;101030.19;;;26.76;49.67
49627;BME280;35527;54.616;39.786;2022-08-23T04:19:31;101018.50;;;27.08;49.06
49627;BME280;35527;54.616;39.786;2022-08-23T04:22:40;101008.63;;;27.39;47.43
49627;BME280;35527;54.616;39.786;2022-08-23T04:25:45;101013.34;;;28.03;46.18
49627;BME280;35527;54.616;39.786;2022-08-23T04:28:48;101001.19;;;27.72;45.36
49627;BME280;35527;54.616;39.786;2022-08-23T04:31:56;101026.53;;;27.76;46.68
49627;BME280;35527;54.616;39.786;2022-08-23T04:35:00;101031.72;;;27.97;45.17
49627;BME280;35527;54.616;39.786;2022-08-23T04:38:04;101022.06;;;27.96;45.40
49627;BME280;35527;54.616;39.786;2022-08-23T04:41:08;101035.75;;;28.58;43.78
49627;BME280;35527;54.616;39.786;2022-08-23T04:44:32;101031.16;;;28.78;43.54
49627;BME280;35527;54.616;39.786;2022-08-23T04:47:36;101040.81;;;29.34;41.84
49627;BME280;35527;54.616;39.786;2022-08-23T04:50:44;101025.28;;;29.65;41.19
49627;BME280;35527;54.616;39.786;2022-08-23T04:53:53;101036.94;;;29.64;40.78
49627;BME280;35527;54.616;39.786;2022-08-23T04:57:06;101026.88;;;28.94;41.49
49627;BME280;35527;54.616;39.786;2022-08-23T05:00:15;101040.06;;;28.96;41.59
49627;BME280;35527;54.616;39.786;2022-08-23T05:03:28;101037.09;;;28.71;41.82
49627;BME280;35527;54.616;39.786;2022-08-23T05:06:33;101035.66;;;28.77;41.71
49627;BME280;35527;54.616;39.786;2022-08-23T05:09:40;101032.63;;;28.90;40.81
49627;BME280;35527;54.616;39.786;2022-08-23T05:12:45;101038.75;;;29.46;39.96
49627;BME280;35527;54.616;39.786;2022-08-23T05:15:54;101036.88;;;30.52;38.48
49627;BME280;35527;54.616;39.786;2022-08-23T05:18:58;101012.09;;;31.43;35.96
49627;BME280;35527;54.616;39.786;2022-08-23T05:22:07;101042.38;;;32.65;35.07
49627;BME280;35527;54.616;39.786;2022-08-23T05:25:36;101029.66;;;33.90;32.65
49627;BME280;35527;54.616;39.786;2022-08-23T05:28:58;101033.41;;;34.78;30.97
49627;BME280;35527;54.616;39.786;2022-08-23T05:32:08;101042.66;;;35.27;30.30
49627;BME280;35527;54.616;39.786;2022-08-23T05:35:12;101043.81;;;35.60;29.89
49627;BME280;35527;54.616;39.786;2022-08-23T05:38:18;101046.31;;;35.90;29.30
49627;BME280;35527;54.616;39.786;2022-08-23T05:41:26;101039.66;;;36.14;29.06
49627;BME280;35527;54.616;39.786;2022-08-23T05:44:33;101037.72;;;36.78;28.28
49627;BME280;35527;54.616;39.786;2022-08-23T05:47:40;101035.22;;;36.76;27.97
49627;BME280;35527;54.616;39.786;2022-08-23T05:51:14;101043.72;;;36.66;27.74
49627;BME280;35527;54.616;39.786;2022-08-23T05:54:17;101035.53;;;37.14;27.35
49627;BME280;35527;54.616;39.786;2022-08-23T05:57:55;101039.06;;;37.02;27.45
49627;BME280;35527;54.616;39.786;2022-08-23T06:00:58;101046.56;;;37.19;27.00
49627;BME280;35527;54.616;39.786;2022-08-23T06:04:03;101024.38;;;37.44;27.10
49627;BME280;35527;54.616;39.786;2022-08-23T06:07:08;101034.38;;;37.77;28.14
49627;BME280;35527;54.616;39.786;2022-08-23T06:10:16;101040.19;;;37.40;28.53
49627;BME280;35527;54.616;39.786;2022-08-23T06:13:27;101045.28;;;38.55;26.71
49627;BME280;35527;54.616;39.786;2022-08-23T06:16:37;101058.22;;;38.98;25.64
49627;BME280;35527;54.616;39.786;2022-08-23T06:19:45;101056.75;;;39.34;25.37
49627;BME280;35527;54.616;39.786;2022-08-23T06:22:58;101041.59;;;39.19;25.48
49627;BME280;35527;54.616;39.786;2022-08-23T06:26:18;101057.97;;;39.63;25.36
49627;BME280;35527;54.616;39.786;2022-08-23T06:29:47;101058.81;;;39.89;24.94
49627;BME280;35527;54.616;39.786;2022-08-23T06:33:03;101050.81;;;40.86;23.58
49627;BME280;35527;54.616;39.786;2022-08-23T06:36:28;101048.47;;;40.22;23.31
49627;BME280;35527;54.616;39.786;2022-08-23T06:40:00;101061.06;;;39.67;24.30
49627;BME280;35527;54.616;39.786;2022-08-23T06:43:14;101061.81;;;39.49;24.50
49627;BME280;35527;54.616;39.786;2022-08-23T06:46:37;101029.72;;;38.44;26.16
49627;BME280;35527;54.616;39.786;2022-08-23T06:49:42;101050.69;;;39.63;25.16
49627;BME280;35527;54.616;39.786;2022-08-23T06:52:47;101043.16;;;40.09;24.72
49627;BME280;35527;54.616;39.786;2022-08-23T06:56:18;101059.31;;;40.41;23.80
49627;BME280;35527;54.616;39.786;2022-08-23T06:59:37;101057.09;;;39.94;23.46
49627;BME280;35527;54.616;39.786;2022-08-23T07:03:03;101053.75;;;39.42;24.40
49627;BME280;35527;54.616;39.786;2022-08-23T07:06:28;101054.41;;;39.62;23.80
49627;BME280;35527;54.616;39.786;2022-08-23T07:09:34;101045.47;;;40.30;23.34
49627;BME280;35527;54.616;39.786;2022-08-23T07:12:39;101054.56;;;41.45;22.64
49627;BME280;35527;54.616;39.786;2022-08-23T07:15:44;101050.25;;;42.03;21.72
49627;BME280;35527;54.616;39.786;2022-08-23T07:18:50;101057.50;;;42.49;21.02
49627;BME280;35527;54.616;39.786;2022-08-23T07:21:56;101049.75;;;42.41;20.70
49627;BME280;35527;54.616;39.786;2022-08-23T07:24:59;101040.13;;;42.50;21.16
49627;BME280;35527;54.616;39.786;2022-08-23T07:28:03;101031.44;;;40.34;21.58
49627;BME280;35527;54.616;39.786;2022-08-23T07:32:02;101031.44;;;40.34;22.07
49627;BME280;35527;54.616;39.786;2022-08-23T07:34:49;101050.09;;;39.30;22.96
49627;BME280;35527;54.616;39.786;2022-08-23T07:37:55;101041.63;;;37.83;24.37
49627;BME280;35527;54.616;39.786;2022-08-23T07:41:03;101051.16;;;37.46;25.20
49627;BME280;35527;54.616;39.786;2022-08-23T07:44:10;101046.34;;;37.08;25.35
49627;BME280;35527;54.616;39.786;2022-08-23T07:47:19;101036.81;;;38.18;24.72
49627;BME280;35527;54.616;39.786;2022-08-23T07:50:27;101056.06;;;40.14;22.92
49627;BME280;35527;54.616;39.786;2022-08-23T07:53:30;101050.16;;;39.73;22.91
49627;BME280;35527;54.616;39.786;2022-08-23T07:56:38;101038.09;;;38.02;24.79
49627;BME280;35527;54.616;39.786;2022-08-23T07:59:53;101048.41;;;38.45;24.09
49627;BME280;35527;54.616;39.786;2022-08-23T08:03:23;101043.25;;;39.20;23.98
49627;BME280;35527;54.616;39.786;2022-08-23T08:06:52;101040.09;;;39.30;24.09
49627;BME280;35527;54.616;39.786;2022-08-23T08:10:15;101053.59;;;38.53;24.45
49627;BME280;35527;54.616;39.786;2022-08-23T08:13:19;101025.34;;;38.29;24.01
49627;BME280;35527;54.616;39.786;2022-08-23T08:16:29;101044.09;;;37.25;25.02
49627;BME280;35527;54.616;39.786;2022-08-23T08:19:35;101039.63;;;36.42;25.90
49627;BME280;35527;54.616;39.786;2022-08-23T08:23:23;101058.22;;;36.02;26.22
49627;BME280;35527;54.616;39.786;2022-08-23T08:26:47;101066.38;;;35.59;27.17
49627;BME280;35527;54.616;39.786;2022-08-23T08:29:54;101008.75;;;36.10;25.26
49627;BME280;35527;54.616;39.786;2022-08-23T08:32:59;101013.41;;;35.67;25.78
49627;BME280;35527;54.616;39.786;2022-08-23T08:36:02;101040.53;;;36.21;25.71
49627;BME280;35527;54.616;39.786;2022-08-23T08:39:17;101026.94;;;36.43;25.33
49627;BME280;35527;54.616;39.786;2022-08-23T08:46:12;101015.78;;;39.17;22.09
49627;BME280;35527;54.616;39.786;2022-08-23T08:49:43;101035.97;;;38.24;22.62
49627;BME280;35527;54.616;39.786;2022-08-23T08:56:46;101030.16;;;37.14;23.34
49627;BME280;35527;54.616;39.786;2022-08-23T09:00:25;101010.94;;;36.76;23.94
49627;BME280;35527;54.616;39.786;2022-08-23T09:03:32;101027.88;;;36.57;23.73
49627;BME280;35527;54.616;39.786;2022-08-23T09:16:51;101032.66;;;37.16;23.76
49627;BME280;35527;54.616;39.786;2022-08-23T09:19:58;100986.69;;;36.35;24.51
49627;BME280;35527;54.616;39.786;2022-08-23T09:23:15;101044.50;;;37.22;23.15
49627;BME280;35527;54.616;39.786;2022-08-23T09:26:26;101009.88;;;36.77;23.86
49627;BME280;35527;54.616;39.786;2022-08-23T09:29:38;101030.75;;;36.14;23.92
49627;BME280;35527;54.616;39.786;2022-08-23T09:32:46;101017.25;;;36.07;24.41
49627;BME280;35527;54.616;39.786;2022-08-23T09:39:30;101022.31;;;34.88;24.94
49627;BME280;35527;54.616;39.786;2022-08-23T09:42:40;100994.50;;;34.29;25.38
49627;BME280;35527;54.616;39.786;2022-08-23T09:48:55;101011.06;;;34.48;26.05
49627;BME280;35527;54.616;39.786;2022-08-23T09:52:17;101009.78;;;34.95;25.41
49627;BME280;35527;54.616;39.786;2022-08-23T09:55:36;100995.19;;;35.04;25.17
49627;BME280;35527;54.616;39.786;2022-08-23T09:58:44;101010.72;;;34.87;24.96
49627;BME280;35527;54.616;39.786;2022-08-23T10:02:35;101001.72;;;34.29;25.71
49627;BME280;35527;54.616;39.786;2022-08-23T10:05:51;101009.81;;;33.76;25.54
49627;BME280;35527;54.616;39.786;2022-08-23T10:08:56;101001.09;;;34.12;25.79
49627;BME280;35527;54.616;39.786;2022-08-23T10:12:05;100994.69;;;34.58;25.43
49627;BME280;35527;54.616;39.786;2022-08-23T10:15:09;101033.88;;;34.67;24.54
49627;BME280;35527;54.616;39.786;2022-08-23T10:28:38;101019.50;;;34.45;25.51
49627;BME280;35527;54.616;39.786;2022-08-23T10:32:27;101014.31;;;34.43;26.39
49627;BME280;35527;54.616;39.786;2022-08-23T10:38:58;101003.00;;;33.89;25.48
49627;BME280;35527;54.616;39.786;2022-08-23T10:45:25;100997.16;;;34.59;25.53
49627;BME280;35527;54.616;39.786;2022-08-23T10:48:35;101013.19;;;34.08;26.04
49627;BME280;35527;54.616;39.786;2022-08-23T10:52:06;101013.47;;;33.98;26.85
49627;BME280;35527;54.616;39.786;2022-08-23T10:55:25;101012.28;;;34.16;26.43
49627;BME280;35527;54.616;39.786;2022-08-23T11:02:13;101013.03;;;34.24;26.89
49627;BME280;35527;54.616;39.786;2022-08-23T11:05:36;100996.06;;;34.39;27.34
49627;BME280;35527;54.616;39.786;2022-08-23T11:12:21;100986.97;;;33.95;27.50
49627;BME280;35527;54.616;39.786;2022-08-23T11:19:00;101000.47;;;33.49;27.85
49627;BME280;35527;54.616;39.786;2022-08-23T11:22:34;100987.84;;;33.58;26.86
49627;BME280;35527;54.616;39.786;2022-08-23T11:25:38;100990.38;;;33.74;27.11
49627;BME280;35527;54.616;39.786;2022-08-23T11:28:44;100984.72;;;33.69;27.42
49627;BME280;35527;54.616;39.786;2022-08-23T11:35:40;100997.50;;;33.21;28.54
49627;BME280;35527;54.616;39.786;2022-08-23T11:55:41;101001.78;;;33.30;28.21
49627;BME280;35527;54.616;39.786;2022-08-23T12:09:04;100995.50;;;32.92;27.05
49627;BME280;35527;54.616;39.786;2022-08-23T12:19:29;100978.03;;;32.65;27.14
49627;BME280;35527;54.616;39.786;2022-08-23T12:22:56;100992.59;;;32.70;27.21
49627;BME280;35527;54.616;39.786;2022-08-23T12:26:11;100972.75;;;32.57;27.42
49627;BME280;35527;54.616;39.786;2022-08-23T12:33:23;100982.94;;;32.53;27.40
49627;BME280;35527;54.616;39.786;2022-08-23T12:39:51;100969.81;;;32.66;27.14
49627;BME280;35527;54.616;39.786;2022-08-23T12:43:04;100968.09;;;32.73;27.47
49627;BME280;35527;54.616;39.786;2022-08-23T12:46:08;100984.22;;;32.96;27.16
49627;BME280;35527;54.616;39.786;2022-08-23T12:52:32;100956.28;;;32.20;26.92
49627;BME280;35527;54.616;39.786;2022-08-23T12:55:39;100957.81;;;32.15;27.47
49627;BME280;35527;54.616;39.786;2022-08-23T12:58:49;100970.97;;;32.24;27.46
49627;BME280;35527;54.616;39.786;2022-08-23T13:01:53;100964.81;;;32.16;26.94
49627;BME280;35527;54.616;39.786;2022-08-23T13:05:09;100952.97;;;32.02;27.76
49627;BME280;35527;54.616;39.786;2022-08-23T13:08:22;100980.44;;;31.96;27.67
49627;BME280;35527;54.616;39.786;2022-08-23T13:11:30;100947.81;;;31.76;27.58
49627;BME280;35527;54.616;39.786;2022-08-23T13:14:44;100932.56;;;32.01;27.76
49627;BME280;35527;54.616;39.786;2022-08-23T13:17:58;100961.38;;;31.82;27.70
49627;BME280;35527;54.616;39.786;2022-08-23T13:21:27;100960.38;;;31.83;27.73
49627;BME280;35527;54.616;39.786;2022-08-23T13:24:39;100959.19;;;31.78;27.82
49627;BME280;35527;54.616;39.786;2022-08-23T13:31:06;100965.72;;;31.75;27.96
49627;BME280;35527;54.616;39.786;2022-08-23T13:34:42;100972.78;;;31.68;28.04
49627;BME280;35527;54.616;39.786;2022-08-23T13:37:46;100967.09;;;31.71;27.38
49627;BME280;35527;54.616;39.786;2022-08-23T13:41:04;100980.00;;;31.43;27.34
49627;BME280;35527;54.616;39.786;2022-08-23T13:44:09;100974.06;;;30.98;27.47
49627;BME280;35527;54.616;39.786;2022-08-23T13:47:21;100969.94;;;30.70;28.20
49627;BME280;35527;54.616;39.786;2022-08-23T13:50:29;100983.06;;;30.81;28.15
49627;BME280;35527;54.616;39.786;2022-08-23T13:53:36;100951.78;;;30.73;27.88
49627;BME280;35527;54.616;39.786;2022-08-23T13:56:53;100957.63;;;30.77;28.15
49627;BME280;35527;54.616;39.786;2022-08-23T13:59:56;100953.81;;;30.80;27.67
49627;BME280;35527;54.616;39.786;2022-08-23T14:03:13;100976.47;;;30.75;28.19
49627;BME280;35527;54.616;39.786;2022-08-23T14:06:18;100972.28;;;30.73;27.94
49627;BME280;35527;54.616;39.786;2022-08-23T14:09:22;100955.47;;;30.81;28.35
49627;BME280;35527;54.616;39.786;2022-08-23T14:12:27;100974.06;;;30.82;28.02
49627;BME280;35527;54.616;39.786;2022-08-23T14:15:32;100939.25;;;30.74;28.10
49627;BME280;35527;54.616;39.786;2022-08-23T14:18:56;100961.75;;;30.63;28.23
49627;BME280;35527;54.616;39.786;2022-08-23T14:22:22;100928.66;;;30.48;28.31
49627;BME280;35527;54.616;39.786;2022-08-23T14:25:25;100962.75;;;30.54;28.18
49627;BME280;35527;54.616;39.786;2022-08-23T14:28:33;100942.78;;;30.32;28.46
49627;BME280;35527;54.616;39.786;2022-08-23T14:31:37;100947.94;;;30.25;28.49
49627;BME280;35527;54.616;39.786;2022-08-23T14:34:41;100950.66;;;30.34;28.69
49627;BME280;35527;54.616;39.786;2022-08-23T14:37:44;100938.56;;;30.21;28.33
49627;BME280;35527;54.616;39.786;2022-08-23T14:41:13;100935.03;;;30.21;28.12
49627;BME280;35527;54.616;39.786;2022-08-23T14:44:18;100954.69;;;30.12;28.72
49627;BME280;35527;54.616;39.786;2022-08-23T14:47:21;100956.66;;;30.09;28.64
49627;BME280;35527;54.616;39.786;2022-08-23T14:50:26;100953.63;;;30.04;28.63
49627;BME280;35527;54.616;39.786;2022-08-23T14:53:33;100966.47;;;30.01;29.07
49627;BME280;35527;54.616;39.786;2022-08-23T14:56:39;100950.06;;;29.96;28.87
49627;BME280;35527;54.616;39.786;2022-08-23T14:59:45;100941.69;;;29.82;28.86
49627;BME280;35527;54.616;39.786;2022-08-23T15:02:48;100943.78;;;29.71;29.02
49627;BME280;35527;54.616;39.786;2022-08-23T15:05:54;100952.50;;;29.81;29.44
49627;BME280;35527;54.616;39.786;2022-08-23T15:08:58;100968.13;;;29.76;29.42
49627;BME280;35527;54.616;39.786;2022-08-23T15:12:03;100948.41;;;29.69;30.15
49627;BME280;35527;54.616;39.786;2022-08-23T15:15:27;100946.66;;;29.59;30.18
49627;BME280;35527;54.616;39.786;2022-08-23T15:18:32;100945.91;;;29.49;30.63
49627;BME280;35527;54.616;39.786;2022-08-23T15:21:37;100946.91;;;29.48;30.41
49627;BME280;35527;54.616;39.786;2022-08-23T15:24:41;100965.06;;;29.45;30.19
49627;BME280;35527;54.616;39.786;2022-08-23T15:27:46;100971.84;;;29.39;29.93
49627;BME280;35527;54.616;39.786;2022-08-23T15:30:51;100956.41;;;29.25;30.66
49627;BME280;35527;54.616;39.786;2022-08-23T15:33:55;100984.72;;;29.26;30.81
49627;BME280;35527;54.616;39.786;2022-08-23T15:36:59;100963.75;;;29.13;30.66
49627;BME280;35527;54.616;39.786;2022-08-23T15:40:05;100972.53;;;29.05;31.22
49627;BME280;35527;54.616;39.786;2022-08-23T15:43:10;100972.56;;;28.95;31.31
49627;BME280;35527;54.616;39.786;2022-08-23T15:46:20;100971.94;;;28.84;31.46
49627;BME280;35527;54.616;39.786;2022-08-23T15:49:26;100973.38;;;28.78;31.90
49627;BME280;35527;54.616;39.786;2022-08-23T15:52:32;100964.53;;;28.60;32.03
49627;BME280;35527;54.616;39.786;2022-08-23T15:55:37;100981.25;;;28.52;32.59
49627;BME280;35527;54.616;39.786;2022-08-23T15:59:13;100968.97;;;28.32;32.70
49627;BME280;35527;54.616;39.786;2022-08-23T16:02:17;100988.97;;;28.36;32.90
49627;BME280;35527;54.616;39.786;2022-08-23T16:05:20;100985.53;;;28.25;33.01
49627;BME280;35527;54.616;39.786;2022-08-23T16:08:32;100977.84;;;28.13;33.47
49627;BME280;35527;54.616;39.786;2022-08-23T16:11:37;100976.38;;;28.00;33.51
49627;BME280;35527;54.616;39.786;2022-08-23T16:14:44;100985.94;;;27.93;33.88
49627;BME280;35527;54.616;39.786;2022-08-23T16:17:46;100991.13;;;27.85;34.32
49627;BME280;35527;54.616;39.786;2022-08-23T16:20:51;100991.97;;;27.76;34.67
49627;BME280;35527;54.616;39.786;2022-08-23T16:23:57;100976.97;;;27.55;34.69
49627;BME280;35527;54.616;39.786;2022-08-23T16:27:05;100981.75;;;27.52;34.82
49627;BME280;35527;54.616;39.786;2022-08-23T16:30:12;100971.53;;;27.37;34.93
49627;BME280;35527;54.616;39.786;2022-08-23T16:33:17;100999.09;;;27.46;35.04
49627;BME280;35527;54.616;39.786;2022-08-23T16:36:20;100997.84;;;27.40;35.30
49627;BME280;35527;54.616;39.786;2022-08-23T16:39:26;101001.78;;;27.36;34.95
49627;BME280;35527;54.616;39.786;2022-08-23T16:42:29;100981.75;;;27.23;35.29
49627;BME280;35527;54.616;39.786;2022-08-23T16:45:33;100997.00;;;27.21;35.37
49627;BME280;35527;54.616;39.786;2022-08-23T16:48:36;101013.38;;;27.26;35.37
49627;BME280;35527;54.616;39.786;2022-08-23T16:51:41;101014.78;;;27.20;35.33
49627;BME280;35527;54.616;39.786;2022-08-23T16:54:46;101019.63;;;27.15;35.61
49627;BME280;35527;54.616;39.786;2022-08-23T16:57:51;101016.81;;;27.07;35.59
49627;BME280;35527;54.616;39.786;2022-08-23T17:00:57;101018.63;;;27.06;35.70
49627;BME280;35527;54.616;39.786;2022-08-23T17:04:03;101031.63;;;27.09;35.81
49627;BME280;35527;54.616;39.786;2022-08-23T17:07:06;101029.25;;;27.06;35.69
49627;BME280;35527;54.616;39.786;2022-08-23T17:10:16;101031.63;;;27.00;35.73
49627;BME280;35527;54.616;39.786;2022-08-23T17:13:19;101030.47;;;26.92;35.99
49627;BME280;35527;54.616;39.786;2022-08-23T17:16:24;101037.50;;;26.93;36.14
49627;BME280;35527;54.616;39.786;2022-08-23T17:19:27;101037.91;;;26.89;36.41
49627;BME280;35527;54.616;39.786;2022-08-23T17:22:33;101023.75;;;26.79;36.39
49627;BME280;35527;54.616;39.786;2022-08-23T17:25:37;101040.38;;;26.81;36.68
49627;BME280;35527;54.616;39.786;2022-08-23T17:28:40;101038.84;;;26.78;36.24
49627;BME280;35527;54.616;39.786;2022-08-23T17:31:46;101042.75;;;26.74;36.63
49627;BME280;35527;54.616;39.786;2022-08-23T17:34:52;101029.00;;;26.59;36.70
49627;BME280;35527;54.616;39.786;2022-08-23T17:37:56;101019.19;;;26.50;36.87
49627;BME280;35527;54.616;39.786;2022-08-23T17:41:00;101048.53;;;26.58;36.96
49627;BME280;35527;54.616;39.786;2022-08-23T17:44:05;101041.13;;;26.52;36.94
49627;BME280;35527;54.616;39.786;2022-08-23T17:47:14;101036.31;;;26.46;37.09
49627;BME280;35527;54.616;39.786;2022-08-23T17:50:18;101044.53;;;26.43;36.95
49627;BME280;35527;54.616;39.786;2022-08-23T17:53:22;101047.56;;;26.38;37.17
49627;BME280;35527;54.616;39.786;2022-08-23T17:56:25;101033.69;;;26.25;37.20
49627;BME280;35527;54.616;39.786;2022-08-23T17:59:31;101022.50;;;26.21;37.35
49627;BME280;35527;54.616;39.786;2022-08-23T18:02:41;101041.97;;;26.32;37.19
49627;BME280;35527;54.616;39.786;2022-08-23T18:05:46;101036.22;;;26.26;36.95
49627;BME280;35527;54.616;39.786;2022-08-23T18:08:50;101036.16;;;26.17;37.13